sensor_id;sensor_type;location;lat;lon;timestamp;P1;durP1;ratioP1;P2;durP2;ratioP2
1721;SDS011;858;53.190;8.596;2022-12-13T00:00:25;78.00;;;45.97;;
1721;SDS011;858;53.190;8.596;2022-12-13T00:02:51;69.85;;;43.28;;
1721;SDS011;858;53.190;8.596;2022-12-13T00:05:18;78.95;;;44.90;;
1721;SDS011;858;53.190;8.596;2022-12-13T00:07:44;76.13;;;45.70;;
1721;SDS011;858;53.190;8.596;2022-12-13T00:10:10;82.82;;;45.28;;
1721;SDS011;858;53.190;8.596;2022-12-13T00:12:36;82.70;;;46.67;;
1721;SDS011;858;53.190;8.596;2022-12-13T00:15:03;76.50;;;44.27;;
1721;SDS011;858;53.190;8.596;2022-12-13T00:17:32;71.55;;;44.22;;
1721;SDS011;858;53.190;8.596;2022-12-13T00:19:58;73.38;;;43.20;;
1721;SDS011;858;53.190;8.596;2022-12-13T00:22:26;74.50;;;44.28;;
1721;SDS011;858;53.190;8.596;2022-12-13T00:24:53;76.82;;;43.45;;
1721;SDS011;858;53.190;8.596;2022-12-13T00:27:20;70.50;;;41.37;;
1721;SDS011;858;53.190;8.596;2022-12-13T00:29:47;66.60;;;42.28;;
1721;SDS011;858;53.190;8.596;2022-12-13T00:32:13;67.03;;;41.33;;
1721;SDS011;858;53.190;8.596;2022-12-13T00:34:41;65.97;;;40.85;;
1721;SDS011;858;53.190;8.596;2022-12-13T00:37:07;68.57;;;41.88;;
1721;SDS011;858;53.190;8.596;2022-12-13T00:39:33;68.23;;;38.20;;
1721;SDS011;858;53.190;8.596;2022-12-13T00:42:00;70.63;;;40.13;;
1721;SDS011;858;53.190;8.596;2022-12-13T00:44:26;67.40;;;40.50;;
1721;SDS011;858;53.190;8.596;2022-12-13T00:46:53;67.13;;;40.75;;
1721;SDS011;858;53.190;8.596;2022-12-13T00:49:20;66.05;;;41.10;;
1721;SDS011;858;53.190;8.596;2022-12-13T00:51:48;70.78;;;39.95;;
1721;SDS011;858;53.190;8.596;2022-12-13T00:54:14;69.35;;;40.33;;
1721;SDS011;858;53.190;8.596;2022-12-13T00:56:41;66.35;;;39.17;;
1721;SDS011;858;53.190;8.596;2022-12-13T00:59:07;67.05;;;38.75;;
1721;SDS011;858;53.190;8.596;2022-12-13T01:01:35;65.43;;;38.72;;
1721;SDS011;858;53.190;8.596;2022-12-13T01:04:02;63.03;;;38.40;;
1721;SDS011;858;53.190;8.596;2022-12-13T01:06:30;63.17;;;39.10;;
1721;SDS011;858;53.190;8.596;2022-12-13T01:08:59;66.35;;;38.75;;
1721;SDS011;858;53.190;8.596;2022-12-13T01:11:25;65.03;;;37.38;;
1721;SDS011;858;53.190;8.596;2022-12-13T01:13:52;61.40;;;39.15;;
1721;SDS011;858;53.190;8.596;2022-12-13T01:16:18;60.80;;;38.20;;
1721;SDS011;858;53.190;8.596;2022-12-13T01:18:44;64.93;;;38.65;;
1721;SDS011;858;53.190;8.596;2022-12-13T01:21:11;61.70;;;37.50;;
1721;SDS011;858;53.190;8.596;2022-12-13T01:23:39;62.65;;;36.85;;
1721;SDS011;858;53.190;8.596;2022-12-13T01:26:08;60.75;;;35.20;;
1721;SDS011;858;53.190;8.596;2022-12-13T01:28:34;60.47;;;36.55;;
1721;SDS011;858;53.190;8.596;2022-12-13T01:31:02;59.80;;;36.40;;
1721;SDS011;858;53.190;8.596;2022-12-13T01:33:29;61.95;;;36.08;;
1721;SDS011;858;53.190;8.596;2022-12-13T01:35:55;60.75;;;35.53;;
1721;SDS011;858;53.190;8.596;2022-12-13T01:38:21;61.30;;;36.72;;
1721;SDS011;858;53.190;8.596;2022-12-13T01:40:48;59.28;;;37.30;;
1721;SDS011;858;53.190;8.596;2022-12-13T01:43:23;66.88;;;39.33;;
1721;SDS011;858;53.190;8.596;2022-12-13T01:45:49;66.63;;;40.30;;
1721;SDS011;858;53.190;8.596;2022-12-13T01:48:16;71.13;;;40.38;;
1721;SDS011;858;53.190;8.596;2022-12-13T01:50:46;65.70;;;38.47;;
1721;SDS011;858;53.190;8.596;2022-12-13T01:53:14;68.22;;;39.85;;
1721;SDS011;858;53.190;8.596;2022-12-13T01:55:42;74.45;;;41.83;;
1721;SDS011;858;53.190;8.596;2022-12-13T01:58:10;72.13;;;39.88;;
1721;SDS011;858;53.190;8.596;2022-12-13T02:00:38;70.07;;;38.97;;
1721;SDS011;858;53.190;8.596;2022-12-13T02:03:04;71.25;;;41.90;;
1721;SDS011;858;53.190;8.596;2022-12-13T02:05:32;73.07;;;41.15;;
1721;SDS011;858;53.190;8.596;2022-12-13T02:07:59;69.95;;;40.10;;
1721;SDS011;858;53.190;8.596;2022-12-13T02:10:26;67.47;;;39.40;;
1721;SDS011;858;53.190;8.596;2022-12-13T02:12:53;73.45;;;41.22;;
1721;SDS011;858;53.190;8.596;2022-12-13T02:15:19;76.03;;;42.85;;
1721;SDS011;858;53.190;8.596;2022-12-13T02:17:52;74.93;;;40.60;;
1721;SDS011;858;53.190;8.596;2022-12-13T02:20:29;78.68;;;42.03;;
1721;SDS011;858;53.190;8.596;2022-12-13T02:23:07;68.40;;;40.87;;
1721;SDS011;858;53.190;8.596;2022-12-13T02:25:43;74.32;;;40.50;;
1721;SDS011;858;53.190;8.596;2022-12-13T02:28:21;74.53;;;43.58;;
1721;SDS011;858;53.190;8.596;2022-12-13T02:30:53;69.90;;;41.03;;
1721;SDS011;858;53.190;8.596;2022-12-13T02:33:30;77.22;;;42.83;;
1721;SDS011;858;53.190;8.596;2022-12-13T02:36:04;73.53;;;39.95;;
1721;SDS011;858;53.190;8.596;2022-12-13T02:38:32;74.70;;;41.92;;
1721;SDS011;858;53.190;8.596;2022-12-13T02:41:04;75.63;;;42.60;;
1721;SDS011;858;53.190;8.596;2022-12-13T02:43:33;72.38;;;40.60;;
1721;SDS011;858;53.190;8.596;2022-12-13T02:46:04;70.90;;;42.83;;
1721;SDS011;858;53.190;8.596;2022-12-13T02:48:32;72.65;;;41.80;;
1721;SDS011;858;53.190;8.596;2022-12-13T02:50:59;70.47;;;40.87;;
1721;SDS011;858;53.190;8.596;2022-12-13T02:53:27;66.22;;;39.50;;
1721;SDS011;858;53.190;8.596;2022-12-13T02:55:55;69.25;;;41.28;;
1721;SDS011;858;53.190;8.596;2022-12-13T02:58:22;72.97;;;42.00;;
1721;SDS011;858;53.190;8.596;2022-12-13T03:00:51;72.07;;;40.35;;
1721;SDS011;858;53.190;8.596;2022-12-13T03:03:24;73.00;;;41.60;;
1721;SDS011;858;53.190;8.596;2022-12-13T03:05:56;71.18;;;40.60;;
1721;SDS011;858;53.190;8.596;2022-12-13T03:08:46;73.70;;;40.88;;
1721;SDS011;858;53.190;8.596;2022-12-13T03:11:19;73.40;;;41.22;;
1721;SDS011;858;53.190;8.596;2022-12-13T03:13:47;72.20;;;40.35;;
1721;SDS011;858;53.190;8.596;2022-12-13T03:16:18;72.43;;;41.45;;
1721;SDS011;858;53.190;8.596;2022-12-13T03:18:47;69.03;;;41.88;;
1721;SDS011;858;53.190;8.596;2022-12-13T03:21:14;73.63;;;41.35;;
1721;SDS011;858;53.190;8.596;2022-12-13T03:23:40;68.15;;;40.30;;
1721;SDS011;858;53.190;8.596;2022-12-13T03:26:07;76.70;;;41.38;;
1721;SDS011;858;53.190;8.596;2022-12-13T03:28:34;74.53;;;40.72;;
1721;SDS011;858;53.190;8.596;2022-12-13T03:31:00;75.65;;;43.63;;
1721;SDS011;858;53.190;8.596;2022-12-13T03:33:26;77.15;;;41.45;;
1721;SDS011;858;53.190;8.596;2022-12-13T03:35:54;68.72;;;42.22;;
1721;SDS011;858;53.190;8.596;2022-12-13T03:38:21;78.63;;;43.95;;
1721;SDS011;858;53.190;8.596;2022-12-13T03:40:47;73.65;;;41.65;;
1721;SDS011;858;53.190;8.596;2022-12-13T03:43:14;67.60;;;40.92;;
1721;SDS011;858;53.190;8.596;2022-12-13T03:45:40;65.85;;;39.80;;
1721;SDS011;858;53.190;8.596;2022-12-13T03:48:07;70.10;;;40.85;;
1721;SDS011;858;53.190;8.596;2022-12-13T03:50:33;70.85;;;41.20;;
1721;SDS011;858;53.190;8.596;2022-12-13T03:53:01;74.17;;;41.30;;
1721;SDS011;858;53.190;8.596;2022-12-13T03:55:27;69.32;;;39.72;;
1721;SDS011;858;53.190;8.596;2022-12-13T03:57:54;67.07;;;39.63;;
1721;SDS011;858;53.190;8.596;2022-12-13T04:00:21;72.90;;;41.28;;
1721;SDS011;858;53.190;8.596;2022-12-13T04:02:47;71.55;;;40.35;;
1721;SDS011;858;53.190;8.596;2022-12-13T04:05:14;68.88;;;40.00;;
1721;SDS011;858;53.190;8.596;2022-12-13T04:07:40;75.18;;;41.17;;
1721;SDS011;858;53.190;8.596;2022-12-13T04:10:08;66.63;;;39.30;;
1721;SDS011;858;53.190;8.596;2022-12-13T04:12:35;65.00;;;39.35;;
1721;SDS011;858;53.190;8.596;2022-12-13T04:15:19;67.50;;;39.55;;
1721;SDS011;858;53.190;8.596;2022-12-13T04:17:45;68.07;;;38.08;;
1721;SDS011;858;53.190;8.596;2022-12-13T04:20:12;69.10;;;39.35;;
1721;SDS011;858;53.190;8.596;2022-12-13T04:22:38;65.15;;;38.05;;
1721;SDS011;858;53.190;8.596;2022-12-13T04:25:05;67.38;;;38.72;;
1721;SDS011;858;53.190;8.596;2022-12-13T04:27:33;66.17;;;38.10;;
1721;SDS011;858;53.190;8.596;2022-12-13T04:30:03;69.10;;;39.40;;
1721;SDS011;858;53.190;8.596;2022-12-13T04:32:29;68.78;;;38.30;;
1721;SDS011;858;53.190;8.596;2022-12-13T04:34:56;73.25;;;39.17;;
1721;SDS011;858;53.190;8.596;2022-12-13T04:37:22;74.35;;;39.78;;
1721;SDS011;858;53.190;8.596;2022-12-13T04:39:50;69.60;;;38.60;;
1721;SDS011;858;53.190;8.596;2022-12-13T04:42:16;70.78;;;38.92;;
1721;SDS011;858;53.190;8.596;2022-12-13T04:44:44;71.78;;;39.75;;
1721;SDS011;858;53.190;8.596;2022-12-13T04:47:10;75.17;;;39.70;;
1721;SDS011;858;53.190;8.596;2022-12-13T04:49:36;72.03;;;38.97;;
1721;SDS011;858;53.190;8.596;2022-12-13T04:52:03;73.40;;;40.75;;
1721;SDS011;858;53.190;8.596;2022-12-13T04:54:29;78.78;;;40.50;;
1721;SDS011;858;53.190;8.596;2022-12-13T04:56:56;84.65;;;42.90;;
1721;SDS011;858;53.190;8.596;2022-12-13T04:59:23;80.10;;;41.72;;
1721;SDS011;858;53.190;8.596;2022-12-13T05:01:50;81.85;;;41.45;;
1721;SDS011;858;53.190;8.596;2022-12-13T05:04:17;92.72;;;45.78;;
1721;SDS011;858;53.190;8.596;2022-12-13T05:06:43;92.00;;;46.47;;
1721;SDS011;858;53.190;8.596;2022-12-13T05:09:09;87.32;;;44.55;;
1721;SDS011;858;53.190;8.596;2022-12-13T05:11:36;102.55;;;46.60;;
1721;SDS011;858;53.190;8.596;2022-12-13T05:14:02;100.53;;;47.85;;
1721;SDS011;858;53.190;8.596;2022-12-13T05:16:28;126.85;;;51.20;;
1721;SDS011;858;53.190;8.596;2022-12-13T05:18:56;117.68;;;52.70;;
1721;SDS011;858;53.190;8.596;2022-12-13T05:21:22;111.53;;;53.85;;
1721;SDS011;858;53.190;8.596;2022-12-13T05:23:49;128.63;;;53.10;;
1721;SDS011;858;53.190;8.596;2022-12-13T05:26:16;128.90;;;54.13;;
1721;SDS011;858;53.190;8.596;2022-12-13T05:28:42;126.43;;;53.17;;
1721;SDS011;858;53.190;8.596;2022-12-13T05:31:09;132.35;;;53.72;;
1721;SDS011;858;53.190;8.596;2022-12-13T05:33:36;130.63;;;54.55;;
1721;SDS011;858;53.190;8.596;2022-12-13T05:36:04;138.88;;;57.20;;
1721;SDS011;858;53.190;8.596;2022-12-13T05:38:31;135.90;;;56.55;;
1721;SDS011;858;53.190;8.596;2022-12-13T05:40:57;123.63;;;54.20;;
1721;SDS011;858;53.190;8.596;2022-12-13T05:43:24;126.70;;;51.27;;
1721;SDS011;858;53.190;8.596;2022-12-13T05:45:50;124.75;;;53.35;;
1721;SDS011;858;53.190;8.596;2022-12-13T05:48:16;129.75;;;54.40;;
1721;SDS011;858;53.190;8.596;2022-12-13T05:50:43;119.50;;;52.58;;
1721;SDS011;858;53.190;8.596;2022-12-13T05:53:11;121.28;;;53.08;;
1721;SDS011;858;53.190;8.596;2022-12-13T05:55:37;121.72;;;52.13;;
1721;SDS011;858;53.190;8.596;2022-12-13T05:58:03;122.55;;;52.78;;
1721;SDS011;858;53.190;8.596;2022-12-13T06:00:30;115.57;;;51.25;;
1721;SDS011;858;53.190;8.596;2022-12-13T06:02:56;122.05;;;51.15;;
1721;SDS011;858;53.190;8.596;2022-12-13T06:05:23;110.75;;;51.45;;
1721;SDS011;858;53.190;8.596;2022-12-13T06:07:52;110.13;;;51.10;;
1721;SDS011;858;53.190;8.596;2022-12-13T06:10:20;118.75;;;49.15;;
1721;SDS011;858;53.190;8.596;2022-12-13T06:12:47;124.03;;;50.50;;
1721;SDS011;858;53.190;8.596;2022-12-13T06:15:14;111.63;;;49.65;;
1721;SDS011;858;53.190;8.596;2022-12-13T06:17:40;125.38;;;51.50;;
1721;SDS011;858;53.190;8.596;2022-12-13T06:20:07;106.70;;;49.43;;
1721;SDS011;858;53.190;8.596;2022-12-13T06:22:33;104.20;;;49.47;;
1721;SDS011;858;53.190;8.596;2022-12-13T06:25:00;109.70;;;51.30;;
1721;SDS011;858;53.190;8.596;2022-12-13T06:27:28;115.90;;;49.60;;
1721;SDS011;858;53.190;8.596;2022-12-13T06:29:54;106.95;;;45.33;;
1721;SDS011;858;53.190;8.596;2022-12-13T06:32:21;104.47;;;47.58;;
1721;SDS011;858;53.190;8.596;2022-12-13T06:34:47;99.88;;;47.53;;
1721;SDS011;858;53.190;8.596;2022-12-13T06:37:13;97.43;;;46.70;;
1721;SDS011;858;53.190;8.596;2022-12-13T06:39:39;117.22;;;48.50;;
1721;SDS011;858;53.190;8.596;2022-12-13T06:42:06;148.70;;;48.10;;
1721;SDS011;858;53.190;8.596;2022-12-13T06:44:41;146.73;;;50.25;;
1721;SDS011;858;53.190;8.596;2022-12-13T06:47:07;117.43;;;46.83;;
1721;SDS011;858;53.190;8.596;2022-12-13T06:49:34;105.07;;;48.47;;
1721;SDS011;858;53.190;8.596;2022-12-13T06:52:00;122.10;;;47.10;;
1721;SDS011;858;53.190;8.596;2022-12-13T06:54:26;105.50;;;46.90;;
1721;SDS011;858;53.190;8.596;2022-12-13T06:56:53;116.25;;;47.45;;
1721;SDS011;858;53.190;8.596;2022-12-13T06:59:19;162.15;;;51.92;;
1721;SDS011;858;53.190;8.596;2022-12-13T07:01:47;130.80;;;49.13;;
1721;SDS011;858;53.190;8.596;2022-12-13T07:04:13;129.25;;;49.63;;
1721;SDS011;858;53.190;8.596;2022-12-13T07:06:40;127.13;;;50.50;;
1721;SDS011;858;53.190;8.596;2022-12-13T07:09:06;103.75;;;49.00;;
1721;SDS011;858;53.190;8.596;2022-12-13T07:11:33;91.38;;;46.17;;
1721;SDS011;858;53.190;8.596;2022-12-13T07:13:59;105.93;;;49.70;;
1721;SDS011;858;53.190;8.596;2022-12-13T07:16:26;131.68;;;52.40;;
1721;SDS011;858;53.190;8.596;2022-12-13T07:18:54;114.50;;;49.88;;
1721;SDS011;858;53.190;8.596;2022-12-13T07:21:21;108.47;;;51.13;;
1721;SDS011;858;53.190;8.596;2022-12-13T07:23:47;104.10;;;50.50;;
1721;SDS011;858;53.190;8.596;2022-12-13T07:26:14;122.75;;;52.03;;
1721;SDS011;858;53.190;8.596;2022-12-13T07:28:40;122.97;;;52.33;;
1721;SDS011;858;53.190;8.596;2022-12-13T07:31:07;120.32;;;49.08;;
1721;SDS011;858;53.190;8.596;2022-12-13T07:33:34;106.10;;;50.75;;
1721;SDS011;858;53.190;8.596;2022-12-13T07:36:02;112.95;;;50.65;;
1721;SDS011;858;53.190;8.596;2022-12-13T07:38:28;113.97;;;51.47;;
1721;SDS011;858;53.190;8.596;2022-12-13T07:40:55;110.35;;;51.90;;
1721;SDS011;858;53.190;8.596;2022-12-13T07:43:21;109.73;;;47.87;;
1721;SDS011;858;53.190;8.596;2022-12-13T07:45:48;95.73;;;48.00;;
1721;SDS011;858;53.190;8.596;2022-12-13T07:48:14;108.20;;;50.08;;
1721;SDS011;858;53.190;8.596;2022-12-13T07:50:42;103.70;;;50.08;;
1721;SDS011;858;53.190;8.596;2022-12-13T07:53:09;112.90;;;47.60;;
1721;SDS011;858;53.190;8.596;2022-12-13T07:55:36;102.75;;;47.80;;
1721;SDS011;858;53.190;8.596;2022-12-13T07:58:03;98.05;;;44.13;;
1721;SDS011;858;53.190;8.596;2022-12-13T08:00:30;109.38;;;46.88;;
1721;SDS011;858;53.190;8.596;2022-12-13T08:02:56;132.25;;;46.95;;
1721;SDS011;858;53.190;8.596;2022-12-13T08:05:22;105.97;;;48.15;;
1721;SDS011;858;53.190;8.596;2022-12-13T08:07:49;136.80;;;46.10;;
1721;SDS011;858;53.190;8.596;2022-12-13T08:10:16;100.28;;;46.20;;
1721;SDS011;858;53.190;8.596;2022-12-13T08:12:43;129.73;;;47.70;;
1721;SDS011;858;53.190;8.596;2022-12-13T08:15:09;112.10;;;50.03;;
1721;SDS011;858;53.190;8.596;2022-12-13T08:17:36;111.25;;;49.92;;
1721;SDS011;858;53.190;8.596;2022-12-13T08:20:03;112.50;;;49.70;;
1721;SDS011;858;53.190;8.596;2022-12-13T08:22:29;108.10;;;46.17;;
1721;SDS011;858;53.190;8.596;2022-12-13T08:24:55;120.05;;;44.35;;
1721;SDS011;858;53.190;8.596;2022-12-13T08:27:23;112.22;;;46.40;;
1721;SDS011;858;53.190;8.596;2022-12-13T08:29:49;115.30;;;46.08;;
1721;SDS011;858;53.190;8.596;2022-12-13T08:32:16;103.32;;;46.60;;
1721;SDS011;858;53.190;8.596;2022-12-13T08:34:42;95.00;;;45.65;;
1721;SDS011;858;53.190;8.596;2022-12-13T08:37:09;96.53;;;46.50;;
1721;SDS011;858;53.190;8.596;2022-12-13T08:39:36;95.40;;;45.65;;
1721;SDS011;858;53.190;8.596;2022-12-13T08:42:03;92.18;;;44.70;;
1721;SDS011;858;53.190;8.596;2022-12-13T08:44:31;96.70;;;45.97;;
1721;SDS011;858;53.190;8.596;2022-12-13T08:46:57;93.93;;;45.90;;
1721;SDS011;858;53.190;8.596;2022-12-13T08:49:24;98.63;;;45.67;;
1721;SDS011;858;53.190;8.596;2022-12-13T08:51:50;101.72;;;43.55;;
1721;SDS011;858;53.190;8.596;2022-12-13T08:54:16;77.25;;;43.58;;
1721;SDS011;858;53.190;8.596;2022-12-13T08:56:43;103.05;;;44.42;;
1721;SDS011;858;53.190;8.596;2022-12-13T08:59:09;89.95;;;43.17;;
1721;SDS011;858;53.190;8.596;2022-12-13T09:01:37;101.85;;;46.28;;
1721;SDS011;858;53.190;8.596;2022-12-13T09:04:04;86.35;;;43.42;;
1721;SDS011;858;53.190;8.596;2022-12-13T09:06:30;93.05;;;44.75;;
1721;SDS011;858;53.190;8.596;2022-12-13T09:08:57;100.17;;;43.87;;
1721;SDS011;858;53.190;8.596;2022-12-13T09:11:23;132.75;;;45.47;;
1721;SDS011;858;53.190;8.596;2022-12-13T09:13:49;93.72;;;43.25;;
1721;SDS011;858;53.190;8.596;2022-12-13T09:16:16;91.07;;;44.30;;
1721;SDS011;858;53.190;8.596;2022-12-13T09:18:44;92.78;;;45.70;;
1721;SDS011;858;53.190;8.596;2022-12-13T09:21:12;93.40;;;44.85;;
1721;SDS011;858;53.190;8.596;2022-12-13T09:23:38;87.65;;;44.55;;
1721;SDS011;858;53.190;8.596;2022-12-13T09:26:05;105.00;;;47.03;;
1721;SDS011;858;53.190;8.596;2022-12-13T09:28:32;87.07;;;42.47;;
1721;SDS011;858;53.190;8.596;2022-12-13T09:30:59;86.10;;;43.55;;
1721;SDS011;858;53.190;8.596;2022-12-13T09:33:25;87.15;;;44.40;;
1721;SDS011;858;53.190;8.596;2022-12-13T09:35:53;88.10;;;45.25;;
1721;SDS011;858;53.190;8.596;2022-12-13T09:38:19;79.75;;;41.53;;
1721;SDS011;858;53.190;8.596;2022-12-13T09:40:46;81.65;;;43.40;;
1721;SDS011;858;53.190;8.596;2022-12-13T09:43:15;82.90;;;42.92;;
1721;SDS011;858;53.190;8.596;2022-12-13T09:45:44;91.07;;;43.80;;
1721;SDS011;858;53.190;8.596;2022-12-13T09:48:12;83.35;;;44.05;;
1721;SDS011;858;53.190;8.596;2022-12-13T09:50:41;81.40;;;41.17;;
1721;SDS011;858;53.190;8.596;2022-12-13T09:53:10;86.25;;;45.22;;
1721;SDS011;858;53.190;8.596;2022-12-13T09:55:40;88.37;;;45.00;;
1721;SDS011;858;53.190;8.596;2022-12-13T09:58:10;82.47;;;42.35;;
1721;SDS011;858;53.190;8.596;2022-12-13T10:00:38;93.78;;;43.78;;
1721;SDS011;858;53.190;8.596;2022-12-13T10:03:09;93.80;;;42.63;;
1721;SDS011;858;53.190;8.596;2022-12-13T10:05:37;92.45;;;44.35;;
1721;SDS011;858;53.190;8.596;2022-12-13T10:08:04;99.20;;;44.67;;
1721;SDS011;858;53.190;8.596;2022-12-13T10:10:33;93.30;;;47.17;;
1721;SDS011;858;53.190;8.596;2022-12-13T10:13:02;102.77;;;46.77;;
1721;SDS011;858;53.190;8.596;2022-12-13T10:15:28;94.75;;;46.20;;
1721;SDS011;858;53.190;8.596;2022-12-13T10:17:56;111.63;;;46.10;;
1721;SDS011;858;53.190;8.596;2022-12-13T10:20:23;96.28;;;48.17;;
1721;SDS011;858;53.190;8.596;2022-12-13T10:22:52;100.00;;;47.70;;
1721;SDS011;858;53.190;8.596;2022-12-13T10:25:27;94.50;;;48.10;;
1721;SDS011;858;53.190;8.596;2022-12-13T10:28:10;94.07;;;46.35;;
1721;SDS011;858;53.190;8.596;2022-12-13T10:30:38;90.47;;;47.58;;
1721;SDS011;858;53.190;8.596;2022-12-13T10:33:09;94.00;;;47.30;;
1721;SDS011;858;53.190;8.596;2022-12-13T10:35:43;93.57;;;46.17;;
1721;SDS011;858;53.190;8.596;2022-12-13T10:38:21;82.35;;;42.63;;
1721;SDS011;858;53.190;8.596;2022-12-13T10:40:51;93.03;;;45.03;;
1721;SDS011;858;53.190;8.596;2022-12-13T10:43:19;87.70;;;45.17;;
1721;SDS011;858;53.190;8.596;2022-12-13T10:45:55;100.37;;;43.50;;
1721;SDS011;858;53.190;8.596;2022-12-13T10:48:22;146.80;;;47.65;;
1721;SDS011;858;53.190;8.596;2022-12-13T10:50:56;95.40;;;42.55;;
1721;SDS011;858;53.190;8.596;2022-12-13T10:53:24;85.13;;;44.03;;
1721;SDS011;858;53.190;8.596;2022-12-13T10:55:53;99.63;;;46.30;;
1721;SDS011;858;53.190;8.596;2022-12-13T10:58:21;100.53;;;48.73;;
1721;SDS011;858;53.190;8.596;2022-12-13T11:00:47;108.75;;;49.72;;
1721;SDS011;858;53.190;8.596;2022-12-13T11:03:26;106.45;;;51.20;;
1721;SDS011;858;53.190;8.596;2022-12-13T11:05:56;119.38;;;52.78;;
1721;SDS011;858;53.190;8.596;2022-12-13T11:08:27;103.03;;;49.97;;
1721;SDS011;858;53.190;8.596;2022-12-13T11:10:57;114.57;;;50.88;;
1721;SDS011;858;53.190;8.596;2022-12-13T11:13:27;112.90;;;53.22;;
1721;SDS011;858;53.190;8.596;2022-12-13T11:15:56;109.60;;;53.87;;
1721;SDS011;858;53.190;8.596;2022-12-13T11:18:22;109.75;;;51.80;;
1721;SDS011;858;53.190;8.596;2022-12-13T11:20:51;117.53;;;54.78;;
1721;SDS011;858;53.190;8.596;2022-12-13T11:23:20;110.50;;;52.60;;
1721;SDS011;858;53.190;8.596;2022-12-13T11:25:53;119.32;;;54.15;;
1721;SDS011;858;53.190;8.596;2022-12-13T11:28:23;107.35;;;52.67;;
1721;SDS011;858;53.190;8.596;2022-12-13T11:30:57;101.28;;;52.55;;
1721;SDS011;858;53.190;8.596;2022-12-13T11:33:26;108.18;;;53.20;;
1721;SDS011;858;53.190;8.596;2022-12-13T11:35:57;110.82;;;53.53;;
1721;SDS011;858;53.190;8.596;2022-12-13T11:38:28;110.50;;;54.92;;
1721;SDS011;858;53.190;8.596;2022-12-13T11:40:57;113.03;;;54.53;;
1721;SDS011;858;53.190;8.596;2022-12-13T11:43:25;121.60;;;58.33;;
1721;SDS011;858;53.190;8.596;2022-12-13T11:45:56;121.05;;;57.72;;
1721;SDS011;858;53.190;8.596;2022-12-13T11:48:24;133.02;;;62.40;;
1721;SDS011;858;53.190;8.596;2022-12-13T11:50:56;121.18;;;58.38;;
1721;SDS011;858;53.190;8.596;2022-12-13T11:53:25;125.07;;;60.25;;
1721;SDS011;858;53.190;8.596;2022-12-13T11:55:54;121.53;;;57.72;;
1721;SDS011;858;53.190;8.596;2022-12-13T11:58:22;123.67;;;57.00;;
1721;SDS011;858;53.190;8.596;2022-12-13T12:00:50;106.00;;;53.28;;
1721;SDS011;858;53.190;8.596;2022-12-13T12:03:22;102.63;;;55.70;;
1721;SDS011;858;53.190;8.596;2022-12-13T12:05:54;103.28;;;53.92;;
1721;SDS011;858;53.190;8.596;2022-12-13T12:08:24;119.72;;;57.13;;
1721;SDS011;858;53.190;8.596;2022-12-13T12:10:55;109.45;;;56.90;;
1721;SDS011;858;53.190;8.596;2022-12-13T12:13:25;106.30;;;55.75;;
1721;SDS011;858;53.190;8.596;2022-12-13T12:15:55;106.95;;;56.03;;
1721;SDS011;858;53.190;8.596;2022-12-13T12:18:27;104.03;;;55.55;;
1721;SDS011;858;53.190;8.596;2022-12-13T12:20:59;111.78;;;55.70;;
1721;SDS011;858;53.190;8.596;2022-12-13T12:23:32;110.63;;;56.00;;
1721;SDS011;858;53.190;8.596;2022-12-13T12:26:05;107.60;;;55.17;;
1721;SDS011;858;53.190;8.596;2022-12-13T12:28:35;108.13;;;55.58;;
1721;SDS011;858;53.190;8.596;2022-12-13T12:31:07;108.72;;;57.25;;
1721;SDS011;858;53.190;8.596;2022-12-13T12:33:40;112.85;;;57.53;;
1721;SDS011;858;53.190;8.596;2022-12-13T12:39:02;110.18;;;55.30;;
1721;SDS011;858;53.190;8.596;2022-12-13T12:41:34;112.32;;;59.13;;
1721;SDS011;858;53.190;8.596;2022-12-13T12:44:10;108.97;;;56.63;;
1721;SDS011;858;53.190;8.596;2022-12-13T12:46:45;114.57;;;58.17;;
1721;SDS011;858;53.190;8.596;2022-12-13T12:51:59;109.80;;;57.43;;
1721;SDS011;858;53.190;8.596;2022-12-13T12:54:31;123.38;;;62.30;;
1721;SDS011;858;53.190;8.596;2022-12-13T12:57:04;110.65;;;60.40;;
1721;SDS011;858;53.190;8.596;2022-12-13T12:59:36;114.15;;;60.45;;
1721;SDS011;858;53.190;8.596;2022-12-13T13:02:05;121.00;;;60.65;;
1721;SDS011;858;53.190;8.596;2022-12-13T13:04:38;114.20;;;61.88;;
1721;SDS011;858;53.190;8.596;2022-12-13T13:07:10;112.85;;;58.17;;
1721;SDS011;858;53.190;8.596;2022-12-13T13:09:38;113.32;;;57.95;;
1721;SDS011;858;53.190;8.596;2022-12-13T13:12:05;113.22;;;58.17;;
1721;SDS011;858;53.190;8.596;2022-12-13T13:14:34;111.30;;;59.13;;
1721;SDS011;858;53.190;8.596;2022-12-13T13:20:10;109.35;;;58.75;;
1721;SDS011;858;53.190;8.596;2022-12-13T13:22:38;116.00;;;61.97;;
1721;SDS011;858;53.190;8.596;2022-12-13T13:25:21;109.68;;;58.33;;
1721;SDS011;858;53.190;8.596;2022-12-13T13:27:47;105.32;;;58.97;;
1721;SDS011;858;53.190;8.596;2022-12-13T13:30:16;115.53;;;59.63;;
1721;SDS011;858;53.190;8.596;2022-12-13T13:32:43;105.75;;;56.70;;
1721;SDS011;858;53.190;8.596;2022-12-13T13:37:56;105.50;;;58.00;;
1721;SDS011;858;53.190;8.596;2022-12-13T13:40:27;106.78;;;57.30;;
1721;SDS011;858;53.190;8.596;2022-12-13T13:43:05;113.80;;;57.50;;
1721;SDS011;858;53.190;8.596;2022-12-13T13:48:17;105.00;;;55.47;;
1721;SDS011;858;53.190;8.596;2022-12-13T13:51:04;109.50;;;55.92;;
1721;SDS011;858;53.190;8.596;2022-12-13T13:56:32;115.50;;;57.10;;
1721;SDS011;858;53.190;8.596;2022-12-13T14:01:58;100.32;;;54.45;;
1721;SDS011;858;53.190;8.596;2022-12-13T14:04:37;102.97;;;55.72;;
1721;SDS011;858;53.190;8.596;2022-12-13T14:07:32;105.75;;;55.30;;
1721;SDS011;858;53.190;8.596;2022-12-13T14:10:05;105.78;;;53.45;;
1721;SDS011;858;53.190;8.596;2022-12-13T14:12:58;109.35;;;56.17;;
1721;SDS011;858;53.190;8.596;2022-12-13T14:18:45;107.30;;;55.87;;
1721;SDS011;858;53.190;8.596;2022-12-13T14:21:20;113.68;;;57.55;;
1721;SDS011;858;53.190;8.596;2022-12-13T14:23:52;106.43;;;57.17;;
1721;SDS011;858;53.190;8.596;2022-12-13T14:26:24;108.97;;;53.77;;
1721;SDS011;858;53.190;8.596;2022-12-13T14:28:56;111.13;;;56.47;;
1721;SDS011;858;53.190;8.596;2022-12-13T14:31:24;107.15;;;53.38;;
1721;SDS011;858;53.190;8.596;2022-12-13T14:33:51;105.05;;;54.47;;
1721;SDS011;858;53.190;8.596;2022-12-13T14:36:26;109.88;;;56.00;;
1721;SDS011;858;53.190;8.596;2022-12-13T14:38:57;113.32;;;57.97;;
1721;SDS011;858;53.190;8.596;2022-12-13T14:41:26;123.63;;;59.83;;
1721;SDS011;858;53.190;8.596;2022-12-13T14:43:54;107.80;;;55.97;;
1721;SDS011;858;53.190;8.596;2022-12-13T14:46:21;113.13;;;57.33;;
1721;SDS011;858;53.190;8.596;2022-12-13T14:48:49;106.75;;;53.97;;
1721;SDS011;858;53.190;8.596;2022-12-13T14:51:30;110.93;;;54.45;;
1721;SDS011;858;53.190;8.596;2022-12-13T14:53:58;120.18;;;56.92;;
1721;SDS011;858;53.190;8.596;2022-12-13T14:56:24;115.07;;;57.47;;
1721;SDS011;858;53.190;8.596;2022-12-13T14:58:51;135.93;;;63.70;;
1721;SDS011;858;53.190;8.596;2022-12-13T15:01:24;155.57;;;75.03;;
1721;SDS011;858;53.190;8.596;2022-12-13T15:03:51;139.90;;;69.05;;
1721;SDS011;858;53.190;8.596;2022-12-13T15:06:18;131.85;;;65.18;;
1721;SDS011;858;53.190;8.596;2022-12-13T15:08:46;132.20;;;63.23;;
1721;SDS011;858;53.190;8.596;2022-12-13T15:11:13;124.53;;;59.45;;
1721;SDS011;858;53.190;8.596;2022-12-13T15:13:40;123.68;;;60.45;;
1721;SDS011;858;53.190;8.596;2022-12-13T15:16:08;134.00;;;63.03;;
1721;SDS011;858;53.190;8.596;2022-12-13T15:18:36;133.60;;;62.93;;
1721;SDS011;858;53.190;8.596;2022-12-13T15:21:03;132.95;;;61.72;;
1721;SDS011;858;53.190;8.596;2022-12-13T15:23:42;138.77;;;61.90;;
1721;SDS011;858;53.190;8.596;2022-12-13T15:26:09;132.50;;;60.90;;